sensor_id;sensor_type;location;lat;lon;timestamp;P1;durP1;ratioP1;P2;durP2;ratioP2
54919;SDS011;63804;53.120;8.764;2022-12-05T00:02:20;40.15;;;20.60;;
54919;SDS011;63804;53.120;8.764;2022-12-05T00:04:45;37.13;;;20.90;;
54919;SDS011;63804;53.120;8.764;2022-12-05T00:07:11;38.95;;;21.20;;
54919;SDS011;63804;53.120;8.764;2022-12-05T00:09:37;41.05;;;21.27;;
54919;SDS011;63804;53.120;8.764;2022-12-05T00:12:02;36.60;;;20.65;;
54919;SDS011;63804;53.120;8.764;2022-12-05T00:14:28;37.55;;;20.38;;
54919;SDS011;63804;53.120;8.764;2022-12-05T00:16:54;38.55;;;20.60;;
54919;SDS011;63804;53.120;8.764;2022-12-05T00:19:20;39.50;;;20.95;;
54919;SDS011;63804;53.120;8.764;2022-12-05T00:21:45;36.75;;;20.42;;
54919;SDS011;63804;53.120;8.764;2022-12-05T00:24:12;36.33;;;20.52;;
54919;SDS011;63804;53.120;8.764;2022-12-05T00:26:40;40.88;;;21.55;;
54919;SDS011;63804;53.120;8.764;2022-12-05T00:29:06;42.13;;;20.63;;
54919;SDS011;63804;53.120;8.764;2022-12-05T00:31:31;38.42;;;20.80;;
54919;SDS011;63804;53.120;8.764;2022-12-05T00:34:01;36.92;;;20.10;;
54919;SDS011;63804;53.120;8.764;2022-12-05T00:36:28;42.35;;;21.17;;
54919;SDS011;63804;53.120;8.764;2022-12-05T00:38:57;39.25;;;20.88;;
54919;SDS011;63804;53.120;8.764;2022-12-05T00:41:25;39.13;;;20.50;;
54919;SDS011;63804;53.120;8.764;2022-12-05T00:43:52;36.13;;;19.70;;
54919;SDS011;63804;53.120;8.764;2022-12-05T00:46:22;38.50;;;20.52;;
54919;SDS011;63804;53.120;8.764;2022-12-05T00:48:49;42.97;;;21.02;;
54919;SDS011;63804;53.120;8.764;2022-12-05T00:51:21;40.88;;;21.02;;
54919;SDS011;63804;53.120;8.764;2022-12-05T00:56:18;35.78;;;18.85;;
54919;SDS011;63804;53.120;8.764;2022-12-05T00:58:46;41.28;;;20.17;;
54919;SDS011;63804;53.120;8.764;2022-12-05T01:01:24;38.20;;;19.58;;
54919;SDS011;63804;53.120;8.764;2022-12-05T01:03:58;38.17;;;19.90;;
54919;SDS011;63804;53.120;8.764;2022-12-05T01:06:25;37.33;;;19.83;;
54919;SDS011;63804;53.120;8.764;2022-12-05T01:08:51;37.33;;;19.90;;
54919;SDS011;63804;53.120;8.764;2022-12-05T01:11:19;40.78;;;19.63;;
54919;SDS011;63804;53.120;8.764;2022-12-05T01:13:45;37.28;;;19.70;;
54919;SDS011;63804;53.120;8.764;2022-12-05T01:16:31;39.75;;;19.95;;
54919;SDS011;63804;53.120;8.764;2022-12-05T01:19:01;38.17;;;19.90;;
54919;SDS011;63804;53.120;8.764;2022-12-05T01:21:30;37.22;;;20.13;;
54919;SDS011;63804;53.120;8.764;2022-12-05T01:23:56;35.42;;;19.45;;
54919;SDS011;63804;53.120;8.764;2022-12-05T01:26:22;38.63;;;20.05;;
54919;SDS011;63804;53.120;8.764;2022-12-05T01:28:49;36.05;;;20.17;;
54919;SDS011;63804;53.120;8.764;2022-12-05T01:33:44;39.97;;;21.25;;
54919;SDS011;63804;53.120;8.764;2022-12-05T01:36:10;39.25;;;20.00;;
54919;SDS011;63804;53.120;8.764;2022-12-05T01:38:38;35.33;;;19.30;;
54919;SDS011;63804;53.120;8.764;2022-12-05T01:41:05;41.47;;;21.00;;
54919;SDS011;63804;53.120;8.764;2022-12-05T01:43:32;39.08;;;20.52;;
54919;SDS011;63804;53.120;8.764;2022-12-05T01:45:58;38.50;;;19.85;;
54919;SDS011;63804;53.120;8.764;2022-12-05T01:48:24;36.92;;;18.77;;
54919;SDS011;63804;53.120;8.764;2022-12-05T01:50:56;37.13;;;20.50;;
54919;SDS011;63804;53.120;8.764;2022-12-05T01:53:23;39.08;;;20.10;;
54919;SDS011;63804;53.120;8.764;2022-12-05T01:55:50;40.22;;;20.67;;
54919;SDS011;63804;53.120;8.764;2022-12-05T01:58:16;37.80;;;19.83;;
54919;SDS011;63804;53.120;8.764;2022-12-05T02:00:42;38.75;;;20.63;;
54919;SDS011;63804;53.120;8.764;2022-12-05T02:03:10;38.53;;;19.90;;
54919;SDS011;63804;53.120;8.764;2022-12-05T02:05:41;39.10;;;20.55;;
54919;SDS011;63804;53.120;8.764;2022-12-05T02:08:08;40.45;;;21.08;;
54919;SDS011;63804;53.120;8.764;2022-12-05T02:10:37;41.65;;;22.17;;
54919;SDS011;63804;53.120;8.764;2022-12-05T02:13:12;42.85;;;21.00;;
54919;SDS011;63804;53.120;8.764;2022-12-05T02:15:44;39.70;;;20.55;;
54919;SDS011;63804;53.120;8.764;2022-12-05T02:18:30;41.53;;;21.55;;
54919;SDS011;63804;53.120;8.764;2022-12-05T02:29:18;40.40;;;21.20;;
54919;SDS011;63804;53.120;8.764;2022-12-05T02:31:51;38.65;;;20.70;;
54919;SDS011;63804;53.120;8.764;2022-12-05T02:35:09;39.70;;;20.55;;
54919;SDS011;63804;53.120;8.764;2022-12-05T02:38:24;40.65;;;20.65;;
54919;SDS011;63804;53.120;8.764;2022-12-05T02:43:43;41.55;;;19.30;;
54919;SDS011;63804;53.120;8.764;2022-12-05T02:46:28;37.67;;;19.25;;
54919;SDS011;63804;53.120;8.764;2022-12-05T02:48:56;40.53;;;19.45;;
54919;SDS011;63804;53.120;8.764;2022-12-05T02:51:24;41.47;;;20.60;;
54919;SDS011;63804;53.120;8.764;2022-12-05T02:53:56;41.80;;;21.13;;
54919;SDS011;63804;53.120;8.764;2022-12-05T02:56:26;40.33;;;20.25;;
54919;SDS011;63804;53.120;8.764;2022-12-05T02:58:54;42.85;;;19.90;;
54919;SDS011;63804;53.120;8.764;2022-12-05T03:01:22;38.25;;;19.63;;
54919;SDS011;63804;53.120;8.764;2022-12-05T03:03:54;40.15;;;19.05;;
54919;SDS011;63804;53.120;8.764;2022-12-05T03:06:23;40.58;;;19.42;;
54919;SDS011;63804;53.120;8.764;2022-12-05T03:08:54;40.35;;;20.05;;
54919;SDS011;63804;53.120;8.764;2022-12-05T03:11:27;35.88;;;18.73;;
54919;SDS011;63804;53.120;8.764;2022-12-05T03:14:04;37.38;;;19.20;;
54919;SDS011;63804;53.120;8.764;2022-12-05T03:16:43;37.58;;;18.52;;
54919;SDS011;63804;53.120;8.764;2022-12-05T03:19:25;38.33;;;18.70;;
54919;SDS011;63804;53.120;8.764;2022-12-05T03:22:05;39.55;;;19.30;;
54919;SDS011;63804;53.120;8.764;2022-12-05T03:24:34;34.45;;;18.60;;
54919;SDS011;63804;53.120;8.764;2022-12-05T03:29:56;36.92;;;19.05;;
54919;SDS011;63804;53.120;8.764;2022-12-05T03:35:13;37.92;;;19.40;;
54919;SDS011;63804;53.120;8.764;2022-12-05T03:42:55;38.35;;;18.23;;
54919;SDS011;63804;53.120;8.764;2022-12-05T03:45:47;35.30;;;17.80;;
54919;SDS011;63804;53.120;8.764;2022-12-05T03:51:19;33.38;;;17.00;;
54919;SDS011;63804;53.120;8.764;2022-12-05T03:54:00;35.22;;;18.63;;
54919;SDS011;63804;53.120;8.764;2022-12-05T03:56:33;30.85;;;16.02;;
54919;SDS011;63804;53.120;8.764;2022-12-05T03:59:19;32.47;;;16.48;;
54919;SDS011;63804;53.120;8.764;2022-12-05T04:01:50;34.70;;;17.77;;
54919;SDS011;63804;53.120;8.764;2022-12-05T04:04:20;30.98;;;16.50;;
54919;SDS011;63804;53.120;8.764;2022-12-05T04:06:51;34.83;;;17.85;;
54919;SDS011;63804;53.120;8.764;2022-12-05T04:09:22;35.85;;;17.85;;
54919;SDS011;63804;53.120;8.764;2022-12-05T04:12:00;34.93;;;17.07;;
54919;SDS011;63804;53.120;8.764;2022-12-05T04:14:41;32.72;;;16.85;;
54919;SDS011;63804;53.120;8.764;2022-12-05T04:17:11;31.90;;;16.67;;
54919;SDS011;63804;53.120;8.764;2022-12-05T04:19:52;31.00;;;15.02;;
54919;SDS011;63804;53.120;8.764;2022-12-05T04:22:41;29.70;;;16.17;;
54919;SDS011;63804;53.120;8.764;2022-12-05T04:25:09;29.98;;;15.90;;
54919;SDS011;63804;53.120;8.764;2022-12-05T04:28:17;33.20;;;16.67;;
54919;SDS011;63804;53.120;8.764;2022-12-05T04:33:31;33.30;;;16.20;;
54919;SDS011;63804;53.120;8.764;2022-12-05T04:36:10;31.10;;;16.02;;
54919;SDS011;63804;53.120;8.764;2022-12-05T04:38:49;26.80;;;15.00;;
54919;SDS011;63804;53.120;8.764;2022-12-05T04:41:21;31.00;;;16.38;;
54919;SDS011;63804;53.120;8.764;2022-12-05T04:43:49;31.30;;;15.63;;
54919;SDS011;63804;53.120;8.764;2022-12-05T04:46:17;28.98;;;15.40;;
54919;SDS011;63804;53.120;8.764;2022-12-05T04:48:47;30.80;;;16.35;;
54919;SDS011;63804;53.120;8.764;2022-12-05T04:51:17;28.88;;;14.95;;
54919;SDS011;63804;53.120;8.764;2022-12-05T04:53:48;31.20;;;16.13;;
54919;SDS011;63804;53.120;8.764;2022-12-05T04:58:49;32.55;;;16.30;;
54919;SDS011;63804;53.120;8.764;2022-12-05T05:01:20;31.55;;;15.57;;
54919;SDS011;63804;53.120;8.764;2022-12-05T05:06:45;28.65;;;15.95;;
54919;SDS011;63804;53.120;8.764;2022-12-05T05:09:11;26.33;;;14.95;;
54919;SDS011;63804;53.120;8.764;2022-12-05T05:11:37;30.02;;;16.45;;
54919;SDS011;63804;53.120;8.764;2022-12-05T05:14:03;30.27;;;14.70;;
54919;SDS011;63804;53.120;8.764;2022-12-05T05:16:31;28.90;;;15.10;;
54919;SDS011;63804;53.120;8.764;2022-12-05T05:18:58;26.40;;;15.68;;
54919;SDS011;63804;53.120;8.764;2022-12-05T05:21:25;29.40;;;15.85;;
54919;SDS011;63804;53.120;8.764;2022-12-05T05:23:55;29.05;;;15.95;;
54919;SDS011;63804;53.120;8.764;2022-12-05T05:26:22;29.35;;;15.18;;
54919;SDS011;63804;53.120;8.764;2022-12-05T05:28:49;32.17;;;16.60;;
54919;SDS011;63804;53.120;8.764;2022-12-05T05:31:16;27.75;;;14.85;;
54919;SDS011;63804;53.120;8.764;2022-12-05T05:33:42;29.95;;;16.15;;
54919;SDS011;63804;53.120;8.764;2022-12-05T05:36:09;27.70;;;15.25;;
54919;SDS011;63804;53.120;8.764;2022-12-05T05:38:38;34.53;;;15.68;;
54919;SDS011;63804;53.120;8.764;2022-12-05T05:41:11;30.92;;;15.07;;
54919;SDS011;63804;53.120;8.764;2022-12-05T05:43:41;27.77;;;14.98;;
54919;SDS011;63804;53.120;8.764;2022-12-05T05:46:08;26.90;;;15.07;;
54919;SDS011;63804;53.120;8.764;2022-12-05T05:48:34;26.30;;;15.10;;
54919;SDS011;63804;53.120;8.764;2022-12-05T05:51:00;28.73;;;15.30;;
54919;SDS011;63804;53.120;8.764;2022-12-05T05:53:28;24.90;;;14.05;;
54919;SDS011;63804;53.120;8.764;2022-12-05T05:55:54;30.95;;;15.15;;
54919;SDS011;63804;53.120;8.764;2022-12-05T05:58:19;26.92;;;14.30;;
54919;SDS011;63804;53.120;8.764;2022-12-05T06:00:45;27.55;;;14.38;;
54919;SDS011;63804;53.120;8.764;2022-12-05T06:03:11;30.17;;;15.30;;
54919;SDS011;63804;53.120;8.764;2022-12-05T06:05:37;29.05;;;15.55;;
54919;SDS011;63804;53.120;8.764;2022-12-05T06:08:03;27.95;;;14.27;;
54919;SDS011;63804;53.120;8.764;2022-12-05T06:10:29;26.73;;;14.32;;
54919;SDS011;63804;53.120;8.764;2022-12-05T06:12:55;26.67;;;14.05;;
54919;SDS011;63804;53.120;8.764;2022-12-05T06:15:22;25.23;;;14.57;;
54919;SDS011;63804;53.120;8.764;2022-12-05T06:17:48;26.17;;;14.43;;
54919;SDS011;63804;53.120;8.764;2022-12-05T06:20:14;27.75;;;14.30;;
54919;SDS011;63804;53.120;8.764;2022-12-05T06:22:40;25.80;;;13.57;;
54919;SDS011;63804;53.120;8.764;2022-12-05T06:25:06;24.70;;;13.45;;
54919;SDS011;63804;53.120;8.764;2022-12-05T06:27:33;25.13;;;13.63;;
54919;SDS011;63804;53.120;8.764;2022-12-05T06:29:59;25.35;;;13.52;;
54919;SDS011;63804;53.120;8.764;2022-12-05T06:32:26;25.30;;;13.38;;
54919;SDS011;63804;53.120;8.764;2022-12-05T06:34:53;26.25;;;13.38;;
54919;SDS011;63804;53.120;8.764;2022-12-05T06:37:19;25.20;;;12.60;;
54919;SDS011;63804;53.120;8.764;2022-12-05T06:39:45;23.08;;;12.23;;
54919;SDS011;63804;53.120;8.764;2022-12-05T06:42:11;25.33;;;12.20;;
54919;SDS011;63804;53.120;8.764;2022-12-05T06:44:36;26.85;;;13.05;;
54919;SDS011;63804;53.120;8.764;2022-12-05T06:47:02;21.48;;;11.52;;
54919;SDS011;63804;53.120;8.764;2022-12-05T06:49:28;23.92;;;12.07;;
54919;SDS011;63804;53.120;8.764;2022-12-05T06:51:57;21.10;;;10.90;;
54919;SDS011;63804;53.120;8.764;2022-12-05T06:54:24;21.30;;;10.98;;
54919;SDS011;63804;53.120;8.764;2022-12-05T06:56:49;20.52;;;10.65;;
54919;SDS011;63804;53.120;8.764;2022-12-05T06:59:15;20.30;;;11.35;;
54919;SDS011;63804;53.120;8.764;2022-12-05T07:01:41;20.27;;;10.75;;
54919;SDS011;63804;53.120;8.764;2022-12-05T07:04:09;18.70;;;10.23;;
54919;SDS011;63804;53.120;8.764;2022-12-05T07:06:37;22.05;;;10.35;;
54919;SDS011;63804;53.120;8.764;2022-12-05T07:09:04;19.50;;;10.45;;
54919;SDS011;63804;53.120;8.764;2022-12-05T07:11:31;17.05;;;9.52;;
54919;SDS011;63804;53.120;8.764;2022-12-05T07:13:57;18.10;;;9.57;;
54919;SDS011;63804;53.120;8.764;2022-12-05T07:16:22;20.13;;;10.02;;
54919;SDS011;63804;53.120;8.764;2022-12-05T07:18:48;16.67;;;9.15;;
54919;SDS011;63804;53.120;8.764;2022-12-05T07:21:14;18.27;;;9.65;;
54919;SDS011;63804;53.120;8.764;2022-12-05T07:23:44;16.77;;;9.18;;
54919;SDS011;63804;53.120;8.764;2022-12-05T07:26:12;17.80;;;9.75;;
54919;SDS011;63804;53.120;8.764;2022-12-05T07:28:42;17.20;;;9.68;;
54919;SDS011;63804;53.120;8.764;2022-12-05T07:31:09;19.52;;;9.77;;
54919;SDS011;63804;53.120;8.764;2022-12-05T07:33:36;20.75;;;9.85;;
54919;SDS011;63804;53.120;8.764;2022-12-05T07:36:04;22.60;;;11.52;;
54919;SDS011;63804;53.120;8.764;2022-12-05T07:38:34;21.83;;;11.48;;
54919;SDS011;63804;53.120;8.764;2022-12-05T07:41:04;23.83;;;11.52;;
54919;SDS011;63804;53.120;8.764;2022-12-05T07:43:31;22.13;;;10.85;;
54919;SDS011;63804;53.120;8.764;2022-12-05T07:46:04;22.50;;;11.73;;
54919;SDS011;63804;53.120;8.764;2022-12-05T07:48:31;29.98;;;14.20;;
54919;SDS011;63804;53.120;8.764;2022-12-05T07:50:58;24.65;;;13.60;;
54919;SDS011;63804;53.120;8.764;2022-12-05T07:53:28;25.30;;;12.48;;
54919;SDS011;63804;53.120;8.764;2022-12-05T07:55:57;24.42;;;12.38;;
54919;SDS011;63804;53.120;8.764;2022-12-05T07:58:25;22.67;;;12.32;;
54919;SDS011;63804;53.120;8.764;2022-12-05T08:00:52;24.38;;;12.70;;
54919;SDS011;63804;53.120;8.764;2022-12-05T08:03:18;22.23;;;11.93;;
54919;SDS011;63804;53.120;8.764;2022-12-05T08:05:44;21.65;;;12.52;;
54919;SDS011;63804;53.120;8.764;2022-12-05T08:08:09;24.77;;;12.70;;
54919;SDS011;63804;53.120;8.764;2022-12-05T08:10:35;21.65;;;12.15;;
54919;SDS011;63804;53.120;8.764;2022-12-05T08:13:01;24.85;;;12.52;;
54919;SDS011;63804;53.120;8.764;2022-12-05T08:15:26;23.38;;;12.48;;
54919;SDS011;63804;53.120;8.764;2022-12-05T08:17:52;20.90;;;12.70;;
54919;SDS011;63804;53.120;8.764;2022-12-05T08:20:18;21.63;;;12.35;;
54919;SDS011;63804;53.120;8.764;2022-12-05T08:22:44;21.10;;;11.75;;
54919;SDS011;63804;53.120;8.764;2022-12-05T08:25:09;22.70;;;12.35;;
54919;SDS011;63804;53.120;8.764;2022-12-05T08:27:35;24.17;;;12.45;;
54919;SDS011;63804;53.120;8.764;2022-12-05T08:30:01;23.92;;;12.65;;
54919;SDS011;63804;53.120;8.764;2022-12-05T08:32:28;23.88;;;12.20;;
54919;SDS011;63804;53.120;8.764;2022-12-05T08:34:53;23.92;;;13.10;;
54919;SDS011;63804;53.120;8.764;2022-12-05T08:37:19;23.10;;;13.10;;
54919;SDS011;63804;53.120;8.764;2022-12-05T08:39:45;23.90;;;12.75;;
54919;SDS011;63804;53.120;8.764;2022-12-05T08:42:11;26.45;;;13.55;;
54919;SDS011;63804;53.120;8.764;2022-12-05T08:44:36;25.20;;;12.65;;
54919;SDS011;63804;53.120;8.764;2022-12-05T08:47:02;24.20;;;12.75;;
54919;SDS011;63804;53.120;8.764;2022-12-05T08:49:28;24.17;;;13.32;;
54919;SDS011;63804;53.120;8.764;2022-12-05T08:51:53;24.58;;;12.63;;
54919;SDS011;63804;53.120;8.764;2022-12-05T08:54:19;25.15;;;12.88;;
54919;SDS011;63804;53.120;8.764;2022-12-05T08:56:45;25.77;;;13.18;;
54919;SDS011;63804;53.120;8.764;2022-12-05T08:59:10;27.50;;;14.20;;
54919;SDS011;63804;53.120;8.764;2022-12-05T09:01:36;22.17;;;12.85;;
54919;SDS011;63804;53.120;8.764;2022-12-05T09:04:03;26.00;;;13.50;;
54919;SDS011;63804;53.120;8.764;2022-12-05T09:06:30;25.70;;;12.75;;
54919;SDS011;63804;53.120;8.764;2022-12-05T09:08:58;25.15;;;13.13;;
54919;SDS011;63804;53.120;8.764;2022-12-05T09:11:26;26.02;;;13.57;;
54919;SDS011;63804;53.120;8.764;2022-12-05T09:13:54;23.27;;;12.43;;
54919;SDS011;63804;53.120;8.764;2022-12-05T09:16:32;25.17;;;13.77;;
54919;SDS011;63804;53.120;8.764;2022-12-05T09:18:59;25.33;;;12.75;;
54919;SDS011;63804;53.120;8.764;2022-12-05T09:21:26;22.48;;;11.77;;
54919;SDS011;63804;53.120;8.764;2022-12-05T09:23:54;22.02;;;12.52;;
54919;SDS011;63804;53.120;8.764;2022-12-05T09:26:22;22.80;;;12.98;;
54919;SDS011;63804;53.120;8.764;2022-12-05T09:28:49;22.10;;;12.65;;
54919;SDS011;63804;53.120;8.764;2022-12-05T09:31:17;23.92;;;13.05;;
54919;SDS011;63804;53.120;8.764;2022-12-05T09:33:47;23.88;;;12.82;;
54919;SDS011;63804;53.120;8.764;2022-12-05T09:38:42;25.42;;;13.23;;
54919;SDS011;63804;53.120;8.764;2022-12-05T09:43:55;22.30;;;12.23;;
54919;SDS011;63804;53.120;8.764;2022-12-05T09:49:19;23.33;;;12.15;;
54919;SDS011;63804;53.120;8.764;2022-12-05T09:51:47;23.92;;;12.27;;
54919;SDS011;63804;53.120;8.764;2022-12-05T09:54:13;21.98;;;11.75;;
54919;SDS011;63804;53.120;8.764;2022-12-05T09:56:40;21.83;;;11.18;;
54919;SDS011;63804;53.120;8.764;2022-12-05T09:59:11;21.63;;;11.98;;
54919;SDS011;63804;53.120;8.764;2022-12-05T10:06:55;18.95;;;10.20;;
54919;SDS011;63804;53.120;8.764;2022-12-05T10:18:04;18.90;;;9.68;;
54919;SDS011;63804;53.120;8.764;2022-12-05T10:20:42;19.85;;;9.63;;
54919;SDS011;63804;53.120;8.764;2022-12-05T10:23:20;17.88;;;9.32;;
54919;SDS011;63804;53.120;8.764;2022-12-05T10:25:51;20.40;;;10.07;;
54919;SDS011;63804;53.120;8.764;2022-12-05T10:31:01;16.65;;;8.50;;
54919;SDS011;63804;53.120;8.764;2022-12-05T10:33:35;16.58;;;8.38;;
54919;SDS011;63804;53.120;8.764;2022-12-05T10:36:08;17.63;;;8.77;;
54919;SDS011;63804;53.120;8.764;2022-12-05T10:38:35;17.77;;;8.13;;
54919;SDS011;63804;53.120;8.764;2022-12-05T10:41:05;15.27;;;8.15;;
54919;SDS011;63804;53.120;8.764;2022-12-05T10:43:33;15.70;;;8.20;;
54919;SDS011;63804;53.120;8.764;2022-12-05T10:46:02;14.48;;;7.07;;
54919;SDS011;63804;53.120;8.764;2022-12-05T10:48:29;13.55;;;6.97;;
54919;SDS011;63804;53.120;8.764;2022-12-05T10:50:58;14.80;;;6.72;;
54919;SDS011;63804;53.120;8.764;2022-12-05T10:53:36;14.82;;;6.40;;
54919;SDS011;63804;53.120;8.764;2022-12-05T10:59:15;15.57;;;6.90;;
54919;SDS011;63804;53.120;8.764;2022-12-05T11:01:44;26.83;;;11.75;;
54919;SDS011;63804;53.120;8.764;2022-12-05T11:04:26;19.70;;;9.23;;
54919;SDS011;63804;53.120;8.764;2022-12-05T11:06:55;17.55;;;8.25;;
54919;SDS011;63804;53.120;8.764;2022-12-05T11:09:27;16.90;;;7.32;;
54919;SDS011;63804;53.120;8.764;2022-12-05T11:11:56;14.35;;;6.95;;
54919;SDS011;63804;53.120;8.764;2022-12-05T11:14:37;13.23;;;6.55;;
54919;SDS011;63804;53.120;8.764;2022-12-05T11:17:03;11.98;;;6.00;;
54919;SDS011;63804;53.120;8.764;2022-12-05T11:19:32;12.93;;;6.80;;
54919;SDS011;63804;53.120;8.764;2022-12-05T11:22:02;13.20;;;6.50;;
54919;SDS011;63804;53.120;8.764;2022-12-05T11:29:42;14.18;;;6.38;;
54919;SDS011;63804;53.120;8.764;2022-12-05T11:32:18;13.20;;;6.78;;
54919;SDS011;63804;53.120;8.764;2022-12-05T11:34:49;12.48;;;6.28;;
54919;SDS011;63804;53.120;8.764;2022-12-05T11:37:28;12.45;;;6.93;;
54919;SDS011;63804;53.120;8.764;2022-12-05T11:39:59;12.73;;;6.47;;
54919;SDS011;63804;53.120;8.764;2022-12-05T11:47:42;17.95;;;7.60;;
54919;SDS011;63804;53.120;8.764;2022-12-05T11:50:22;17.88;;;8.25;;
54919;SDS011;63804;53.120;8.764;2022-12-05T11:53:05;14.23;;;7.90;;
54919;SDS011;63804;53.120;8.764;2022-12-05T11:55:44;15.07;;;8.02;;
54919;SDS011;63804;53.120;8.764;2022-12-05T12:01:05;15.40;;;8.68;;
54919;SDS011;63804;53.120;8.764;2022-12-05T12:06:48;19.50;;;9.95;;
54919;SDS011;63804;53.120;8.764;2022-12-05T12:14:38;16.45;;;8.90;;
54919;SDS011;63804;53.120;8.764;2022-12-05T12:33:57;17.30;;;8.77;;
54919;SDS011;63804;53.120;8.764;2022-12-05T12:55:49;19.63;;;9.35;;
54919;SDS011;63804;53.120;8.764;2022-12-05T13:08:44;18.65;;;9.45;;
54919;SDS011;63804;53.120;8.764;2022-12-05T13:11:14;19.30;;;8.90;;
54919;SDS011;63804;53.120;8.764;2022-12-05T13:13:43;20.85;;;9.95;;
54919;SDS011;63804;53.120;8.764;2022-12-05T13:16:22;18.13;;;9.75;;
54919;SDS011;63804;53.120;8.764;2022-12-05T13:18:50;18.37;;;9.53;;
54919;SDS011;63804;53.120;8.764;2022-12-05T13:21:17;18.25;;;9.57;;
54919;SDS011;63804;53.120;8.764;2022-12-05T13:23:45;17.98;;;9.00;;
54919;SDS011;63804;53.120;8.764;2022-12-05T13:26:17;17.45;;;9.15;;
54919;SDS011;63804;53.120;8.764;2022-12-05T13:28:50;16.17;;;8.27;;
54919;SDS011;63804;53.120;8.764;2022-12-05T13:34:02;18.00;;;9.15;;
54919;SDS011;63804;53.120;8.764;2022-12-05T13:36:29;18.02;;;9.07;;
54919;SDS011;63804;53.120;8.764;2022-12-05T13:39:23;17.48;;;8.55;;
54919;SDS011;63804;53.120;8.764;2022-12-05T13:42:18;19.23;;;8.82;;
54919;SDS011;63804;53.120;8.764;2022-12-05T13:44:49;15.43;;;7.95;;
54919;SDS011;63804;53.120;8.764;2022-12-05T13:47:20;16.50;;;8.50;;
54919;SDS011;63804;53.120;8.764;2022-12-05T13:49:54;22.75;;;12.30;;
54919;SDS011;63804;53.120;8.764;2022-12-05T13:52:26;17.83;;;8.70;;
54919;SDS011;63804;53.120;8.764;2022-12-05T13:54:57;15.57;;;7.88;;
54919;SDS011;63804;53.120;8.764;2022-12-05T14:07:47;14.57;;;7.85;;
54919;SDS011;63804;53.120;8.764;2022-12-05T14:10:17;15.25;;;7.88;;
54919;SDS011;63804;53.120;8.764;2022-12-05T14:15:36;18.30;;;9.30;;
54919;SDS011;63804;53.120;8.764;2022-12-05T14:21:07;18.10;;;8.85;;
54919;SDS011;63804;53.120;8.764;2022-12-05T14:34:46;56.63;;;25.25;;
54919;SDS011;63804;53.120;8.764;2022-12-05T14:40:23;30.15;;;15.98;;
54919;SDS011;63804;53.120;8.764;2022-12-05T14:42:56;15.38;;;8.68;;
54919;SDS011;63804;53.120;8.764;2022-12-05T14:48:48;18.70;;;9.55;;
54919;SDS011;63804;53.120;8.764;2022-12-05T14:50:52;15.25;;;8.15;;
54919;SDS011;63804;53.120;8.764;2022-12-05T14:55:45;17.48;;;8.27;;
54919;SDS011;63804;53.120;8.764;2022-12-05T14:58:18;15.35;;;7.32;;
54919;SDS011;63804;53.120;8.764;2022-12-05T15:00:58;17.05;;;7.57;;
54919;SDS011;63804;53.120;8.764;2022-12-05T15:03:31;19.70;;;8.13;;
54919;SDS011;63804;53.120;8.764;2022-12-05T15:06:21;15.13;;;6.93;;
54919;SDS011;63804;53.120;8.764;2022-12-05T15:08:50;14.07;;;7.95;;
54919;SDS011;63804;53.120;8.764;2022-12-05T15:11:20;16.08;;;6.90;;
54919;SDS011;63804;53.120;8.764;2022-12-05T15:16:34;16.98;;;7.57;;
54919;SDS011;63804;53.120;8.764;2022-12-05T15:19:04;13.75;;;6.80;;
54919;SDS011;63804;53.120;8.764;2022-12-05T15:21:37;15.10;;;7.00;;
54919;SDS011;63804;53.120;8.764;2022-12-05T15:24:13;13.68;;;6.95;;
54919;SDS011;63804;53.120;8.764;2022-12-05T15:29:26;13.63;;;6.40;;
54919;SDS011;63804;53.120;8.764;2022-12-05T15:37:14;14.60;;;7.53;;
54919;SDS011;63804;53.120;8.764;2022-12-05T15:43:14;15.38;;;7.90;;
54919;SDS011;63804;53.120;8.764;2022-12-05T15:48:20;16.13;;;7.63;;
54919;SDS011;63804;53.120;8.764;2022-12-05T15:50:29;15.57;;;7.55;;
54919;SDS011;63804;53.120;8.764;2022-12-05T16:01:03;16.50;;;7.82;;
54919;SDS011;63804;53.120;8.764;2022-12-05T16:03:44;16.42;;;8.25;;
54919;SDS011;63804;53.120;8.764;2022-12-05T16:08:49;16.15;;;8.20;;
54919;SDS011;63804;53.120;8.764;2022-12-05T16:11:16;16.27;;;8.35;;
54919;SDS011;63804;53.120;8.764;2022-12-05T16:13:42;13.98;;;7.85;;
54919;SDS011;63804;53.120;8.764;2022-12-05T16:16:15;14.77;;;7.93;;
54919;SDS011;63804;53.120;8.764;2022-12-05T16:19:06;16.65;;;7.95;;
54919;SDS011;63804;53.120;8.764;2022-12-05T16:21:45;15.05;;;7.55;;
54919;SDS011;63804;53.120;8.764;2022-12-05T16:24:30;15.80;;;7.57;;
54919;SDS011;63804;53.120;8.764;2022-12-05T16:27:01;16.83;;;8.07;;
54919;SDS011;63804;53.120;8.764;2022-12-05T16:29:32;15.10;;;7.60;;
54919;SDS011;63804;53.120;8.764;2022-12-05T16:32:01;17.83;;;8.27;;
54919;SDS011;63804;53.120;8.764;2022-12-05T16:34:31;16.10;;;8.32;;
54919;SDS011;63804;53.120;8.764;2022-12-05T16:36:58;14.43;;;7.38;;
54919;SDS011;63804;53.120;8.764;2022-12-05T16:39:24;16.23;;;8.27;;
54919;SDS011;63804;53.120;8.764;2022-12-05T16:41:53;15.27;;;8.23;;
54919;SDS011;63804;53.120;8.764;2022-12-05T16:47:00;15.05;;;7.50;;
54919;SDS011;63804;53.120;8.764;2022-12-05T16:51:58;17.05;;;7.90;;
54919;SDS011;63804;53.120;8.764;2022-12-05T16:54:27;17.63;;;8.50;;
54919;SDS011;63804;53.120;8.764;2022-12-05T16:56:53;15.02;;;7.68;;
54919;SDS011;63804;53.120;8.764;2022-12-05T16:59:29;13.75;;;8.00;;
54919;SDS011;63804;53.120;8.764;2022-12-05T17:01:58;15.52;;;8.07;;
54919;SDS011;63804;53.120;8.764;2022-12-05T17:04:26;14.85;;;7.88;;
54919;SDS011;63804;53.120;8.764;2022-12-05T17:06:52;13.77;;;7.28;;
54919;SDS011;63804;53.120;8.764;2022-12-05T17:09:18;13.63;;;7.32;;
54919;SDS011;63804;53.120;8.764;2022-12-05T17:11:45;17.50;;;8.30;;
54919;SDS011;63804;53.120;8.764;2022-12-05T17:14:14;15.35;;;8.45;;
54919;SDS011;63804;53.120;8.764;2022-12-05T17:16:47;15.93;;;7.57;;
54919;SDS011;63804;53.120;8.764;2022-12-05T17:19:12;15.05;;;7.22;;
54919;SDS011;63804;53.120;8.764;2022-12-05T17:21:39;14.80;;;7.00;;
54919;SDS011;63804;53.120;8.764;2022-12-05T17:24:07;14.40;;;7.60;;
54919;SDS011;63804;53.120;8.764;2022-12-05T17:26:40;14.45;;;7.43;;
54919;SDS011;63804;53.120;8.764;2022-12-05T17:29:06;14.68;;;8.05;;
54919;SDS011;63804;53.120;8.764;2022-12-05T17:31:33;15.45;;;7.30;;
54919;SDS011;63804;53.120;8.764;2022-12-05T17:33:58;13.82;;;7.13;;
54919;SDS011;63804;53.120;8.764;2022-12-05T17:36:24;14.73;;;7.53;;
54919;SDS011;63804;53.120;8.764;2022-12-05T17:38:50;13.43;;;6.70;;
54919;SDS011;63804;53.120;8.764;2022-12-05T17:41:20;13.88;;;6.95;;
54919;SDS011;63804;53.120;8.764;2022-12-05T17:43:47;14.63;;;7.18;;
54919;SDS011;63804;53.120;8.764;2022-12-05T17:46:17;12.70;;;7.05;;
54919;SDS011;63804;53.120;8.764;2022-12-05T17:48:45;13.23;;;7.30;;
54919;SDS011;63804;53.120;8.764;2022-12-05T17:51:12;14.05;;;7.18;;
54919;SDS011;63804;53.120;8.764;2022-12-05T17:53:39;14.57;;;6.60;;
54919;SDS011;63804;53.120;8.764;2022-12-05T17:56:05;13.93;;;7.13;;
54919;SDS011;63804;53.120;8.764;2022-12-05T17:58:32;15.02;;;7.72;;
54919;SDS011;63804;53.120;8.764;2022-12-05T18:00:58;14.02;;;7.43;;
54919;SDS011;63804;53.120;8.764;2022-12-05T18:03:25;13.18;;;7.38;;
54919;SDS011;63804;53.120;8.764;2022-12-05T18:05:51;15.63;;;7.95;;
54919;SDS011;63804;53.120;8.764;2022-12-05T18:08:17;16.42;;;7.60;;